createdAt,value
2023-10-28T00:00:48.972Z,11.00
2023-10-28T00:03:16.909Z,10.97
2023-10-28T00:05:43.638Z,10.96
2023-10-28T00:08:10.989Z,10.95
2023-10-28T00:10:38.022Z,10.95
2023-10-28T00:13:06.276Z,10.94
2023-10-28T00:15:32.846Z,10.94
2023-10-28T00:17:59.720Z,10.93
2023-10-28T00:20:26.772Z,10.93
2023-10-28T00:22:56.429Z,10.92
2023-10-28T00:25:35.477Z,10.91
2023-10-28T00:28:05.100Z,10.91
2023-10-28T00:30:32.235Z,10.91
2023-10-28T00:32:59.864Z,10.92
2023-10-28T00:35:29.304Z,10.91
2023-10-28T00:37:56.788Z,10.91
2023-10-28T00:40:31.318Z,10.92
2023-10-28T00:43:02.126Z,10.92
2023-10-28T00:45:29.444Z,10.91
2023-10-28T00:47:57.805Z,10.91
2023-10-28T00:50:24.872Z,10.89
2023-10-28T00:52:55.368Z,10.88
2023-10-28T00:55:24.192Z,10.88
2023-10-28T00:57:51.766Z,10.87
2023-10-28T01:00:19.135Z,10.87
2023-10-28T01:02:46.331Z,10.86
2023-10-28T01:05:14.761Z,10.86
2023-10-28T01:07:51.323Z,10.85
2023-10-28T01:10:31.753Z,10.85
2023-10-28T01:12:59.873Z,10.85
2023-10-28T01:15:29.662Z,10.86
2023-10-28T01:18:00.978Z,10.86
2023-10-28T01:20:28.100Z,10.87
2023-10-28T01:22:56.618Z,10.86
2023-10-28T01:25:25.631Z,10.88
2023-10-28T01:27:52.112Z,10.89
2023-10-28T01:30:18.829Z,10.89
2023-10-28T01:32:48.091Z,10.90
2023-10-28T01:35:17.094Z,10.90
2023-10-28T01:37:44.066Z,10.90
2023-10-28T01:40:14.780Z,10.89
2023-10-28T01:42:43.498Z,10.88
2023-10-28T01:45:11.756Z,10.87
2023-10-28T01:47:42.125Z,10.87
2023-10-28T01:50:12.637Z,10.86
2023-10-28T01:52:41.576Z,10.85
2023-10-28T01:55:09.156Z,10.84
2023-10-28T01:57:36.153Z,10.84
2023-10-28T02:00:07.778Z,10.83
2023-10-28T02:02:35.939Z,10.83
2023-10-28T02:05:02.865Z,10.84
2023-10-28T02:07:29.545Z,10.84
2023-10-28T02:09:56.599Z,10.84
2023-10-28T02:12:23.107Z,10.84
2023-10-28T02:14:49.603Z,10.84
2023-10-28T02:17:16.080Z,10.82
2023-10-28T02:19:42.684Z,10.81
2023-10-28T02:22:13.986Z,10.80
2023-10-28T02:24:44.670Z,10.81
2023-10-28T02:27:12.396Z,10.80
2023-10-28T02:29:41.167Z,10.80
2023-10-28T02:32:09.786Z,10.80
2023-10-28T02:34:37.747Z,10.80
2023-10-28T02:37:06.626Z,10.81
2023-10-28T02:39:36.517Z,10.83
2023-10-28T02:42:03.128Z,10.83
2023-10-28T02:44:33.331Z,10.85
2023-10-28T02:47:00.867Z,10.86
2023-10-28T02:49:29.059Z,10.87
2023-10-28T02:51:55.780Z,10.87
2023-10-28T02:54:22.284Z,10.88
2023-10-28T02:56:48.758Z,10.88
2023-10-28T02:59:15.324Z,10.89
2023-10-28T03:01:41.856Z,10.89
2023-10-28T03:04:08.777Z,10.90
2023-10-28T03:06:37.650Z,10.90
2023-10-28T03:09:04.252Z,10.91
2023-10-28T03:11:31.138Z,10.90
2023-10-28T03:13:57.971Z,10.88
2023-10-28T03:16:26.377Z,10.86
2023-10-28T03:18:53.480Z,10.85
2023-10-28T03:21:20.914Z,10.84
2023-10-28T03:23:47.812Z,10.82
2023-10-28T03:26:14.845Z,10.79
2023-10-28T03:28:41.646Z,10.76
2023-10-28T03:31:11.315Z,10.73
2023-10-28T03:33:39.049Z,10.71
2023-10-28T03:36:08.948Z,10.69
2023-10-28T03:38:36.422Z,10.65
2023-10-28T03:41:07.959Z,10.62
2023-10-28T03:43:36.291Z,10.60
2023-10-28T03:46:04.974Z,10.58
2023-10-28T03:48:32.759Z,10.57
2023-10-28T03:51:01.486Z,10.57
2023-10-28T03:53:28.853Z,10.56
2023-10-28T03:55:56.080Z,10.58
2023-10-28T03:58:23.550Z,10.60
2023-10-28T04:00:54.645Z,10.61
2023-10-28T04:03:24.768Z,10.62
2023-10-28T04:05:52.538Z,10.63
2023-10-28T04:08:19.075Z,10.62
2023-10-28T04:10:47.520Z,10.62
2023-10-28T04:13:14.551Z,10.62
2023-10-28T04:15:41.784Z,10.61
2023-10-28T04:18:11.148Z,10.62
2023-10-28T04:20:39.062Z,10.62
2023-10-28T04:23:07.293Z,10.62
2023-10-28T04:25:34.668Z,10.63
2023-10-28T04:28:01.468Z,10.64
2023-10-28T04:30:27.970Z,10.65
2023-10-28T04:32:54.522Z,10.66
2023-10-28T04:35:27.784Z,10.67
2023-10-28T04:37:56.839Z,10.68
2023-10-28T04:40:27.513Z,10.69
2023-10-28T04:42:54.837Z,10.70
2023-10-28T04:45:23.213Z,10.69
2023-10-28T04:47:51.698Z,10.69
2023-10-28T04:50:20.927Z,10.69
2023-10-28T04:52:47.577Z,10.69
2023-10-28T04:55:15.093Z,10.70
2023-10-28T04:57:44.840Z,10.70
2023-10-28T05:00:14.628Z,10.71
2023-10-28T05:02:41.326Z,10.72
2023-10-28T05:05:08.792Z,10.74
2023-10-28T05:07:35.516Z,10.76
2023-10-28T05:10:02.723Z,10.77
2023-10-28T05:12:29.417Z,10.77
2023-10-28T05:14:56.363Z,10.77
2023-10-28T05:17:23.197Z,10.77
2023-10-28T05:19:50.032Z,10.75
2023-10-28T05:22:18.674Z,10.74
2023-10-28T05:24:46.027Z,10.72
2023-10-28T05:27:12.573Z,10.71
2023-10-28T05:29:40.736Z,10.69
2023-10-28T05:32:08.189Z,10.69
2023-10-28T05:34:34.826Z,10.67
2023-10-28T05:37:01.361Z,10.64
2023-10-28T05:39:28.796Z,10.63
2023-10-28T05:41:57.548Z,10.62
2023-10-28T05:44:24.067Z,10.62
2023-10-28T05:46:50.727Z,10.61
2023-10-28T05:49:17.478Z,10.60
2023-10-28T05:51:44.619Z,10.59
2023-10-28T05:54:12.916Z,10.58
2023-10-28T05:56:40.086Z,10.58
2023-10-28T05:59:06.658Z,10.57
2023-10-28T06:01:35.888Z,10.56
2023-10-28T06:04:02.804Z,10.56
2023-10-28T06:06:29.552Z,10.55
2023-10-28T06:08:58.356Z,10.56
2023-10-28T06:11:25.912Z,10.57
2023-10-28T06:13:52.732Z,10.58
2023-10-28T06:16:20.336Z,10.60
2023-10-28T06:18:47.334Z,10.60
2023-10-28T06:21:17.000Z,10.61
2023-10-28T06:23:44.016Z,10.63
2023-10-28T06:26:11.637Z,10.64
2023-10-28T06:28:38.424Z,10.66
2023-10-28T06:31:07.204Z,10.69
2023-10-28T06:33:33.961Z,10.72
2023-10-28T06:36:00.859Z,10.76
2023-10-28T06:38:30.199Z,10.81
2023-10-28T06:40:58.874Z,10.85
2023-10-28T06:43:25.835Z,10.88
2023-10-28T06:45:52.603Z,10.89
2023-10-28T06:48:19.257Z,10.91
2023-10-28T06:50:46.480Z,10.92
2023-10-28T06:53:13.098Z,10.94
2023-10-28T06:55:39.744Z,10.96
2023-10-28T06:58:06.256Z,10.99
2023-10-28T07:00:33.110Z,10.99
2023-10-28T07:03:00.484Z,10.97
2023-10-28T07:05:28.194Z,10.96
2023-10-28T07:07:57.935Z,10.97
2023-10-28T07:10:26.953Z,10.97
2023-10-28T07:12:53.487Z,10.98
2023-10-28T07:15:20.442Z,10.98
2023-10-28T07:17:47.079Z,10.98
2023-10-28T07:20:15.051Z,10.98
2023-10-28T07:22:43.060Z,10.99
2023-10-28T07:25:13.345Z,11.01
2023-10-28T07:27:39.843Z,11.03
2023-10-28T07:30:07.627Z,11.05
2023-10-28T07:32:34.245Z,11.06
2023-10-28T07:35:00.958Z,11.07
2023-10-28T07:37:27.986Z,11.06
2023-10-28T07:39:57.057Z,11.06
2023-10-28T07:42:24.418Z,11.06
2023-10-28T07:44:52.527Z,11.06
2023-10-28T07:47:19.854Z,11.05
2023-10-28T07:49:48.273Z,11.07
2023-10-28T07:52:15.201Z,11.08
2023-10-28T07:54:42.551Z,11.10
2023-10-28T07:57:09.437Z,11.12
2023-10-28T07:59:38.502Z,11.13
2023-10-28T08:02:05.708Z,11.13
2023-10-28T08:04:32.206Z,11.13
2023-10-28T08:06:58.714Z,11.14
2023-10-28T08:09:25.606Z,11.16
2023-10-28T08:11:54.190Z,11.19
2023-10-28T08:14:20.818Z,11.22
2023-10-28T08:16:47.541Z,11.24
2023-10-28T08:19:14.127Z,11.26
2023-10-28T08:21:41.954Z,11.29
2023-10-28T08:24:12.955Z,11.34
2023-10-28T08:26:39.976Z,11.39
2023-10-28T08:29:06.684Z,11.48
2023-10-28T08:31:33.423Z,11.62
2023-10-28T08:34:02.795Z,11.69
2023-10-28T08:36:33.890Z,11.74
2023-10-28T08:39:01.258Z,11.76
2023-10-28T08:41:27.817Z,11.77
2023-10-28T08:43:54.840Z,11.75
2023-10-28T08:46:22.524Z,11.75
2023-10-28T08:48:52.768Z,11.78
2023-10-28T08:51:21.591Z,11.81
2023-10-28T08:53:51.362Z,11.80
2023-10-28T08:56:19.500Z,11.82
2023-10-28T08:58:50.420Z,11.87
2023-10-28T09:01:18.620Z,11.91
2023-10-28T09:03:48.723Z,11.93
2023-10-28T09:06:15.886Z,11.96
2023-10-28T09:08:42.499Z,12.07
2023-10-28T09:11:09.578Z,12.24
2023-10-28T09:13:38.246Z,12.41
2023-10-28T09:16:05.858Z,12.52
2023-10-28T09:18:42.054Z,12.60
2023-10-28T09:21:10.645Z,12.68
2023-10-28T09:23:40.222Z,12.71
2023-10-28T09:26:08.122Z,12.66
2023-10-28T09:28:35.759Z,12.59
2023-10-28T09:31:02.381Z,12.54
2023-10-28T09:33:31.915Z,12.48
2023-10-28T09:36:00.465Z,12.44
2023-10-28T09:38:27.490Z,12.44
2023-10-28T09:40:55.233Z,12.44
2023-10-28T09:43:25.000Z,12.44
2023-10-28T09:45:54.797Z,12.42
2023-10-28T09:48:21.772Z,12.41
2023-10-28T09:50:51.835Z,12.55
2023-10-28T09:53:24.116Z,13.02
2023-10-28T09:55:58.135Z,13.43
2023-10-28T09:58:48.662Z,13.73
2023-10-28T10:01:49.609Z,13.93
2023-10-28T10:04:41.652Z,14.18
2023-10-28T10:07:10.391Z,14.49
2023-10-28T10:09:45.418Z,14.63
2023-10-28T10:12:13.236Z,14.73
2023-10-28T10:14:46.710Z,14.83
2023-10-28T10:17:50.826Z,14.97
2023-10-28T10:20:27.315Z,15.45
2023-10-28T10:23:01.826Z,15.30
2023-10-28T10:25:32.443Z,15.04
2023-10-28T10:28:14.724Z,14.82
2023-10-28T10:30:44.890Z,14.59
2023-10-28T10:33:13.475Z,14.40
2023-10-28T10:35:40.834Z,14.27
2023-10-28T10:38:11.623Z,14.19
2023-10-28T10:40:47.530Z,14.10
2023-10-28T10:43:19.850Z,14.00
2023-10-28T10:45:49.788Z,13.89
2023-10-28T10:48:18.046Z,13.81
2023-10-28T10:50:45.007Z,13.81
2023-10-28T10:53:13.085Z,13.82
2023-10-28T10:55:41.408Z,13.84
2023-10-28T10:58:09.721Z,13.83
2023-10-28T11:00:38.285Z,13.81
2023-10-28T11:03:07.697Z,13.79
2023-10-28T11:05:34.942Z,13.77
2023-10-28T11:08:01.502Z,13.74
2023-10-28T11:10:28.434Z,13.75
2023-10-28T11:12:55.046Z,13.76
2023-10-28T11:15:24.670Z,13.75
2023-10-28T11:17:54.113Z,13.76
2023-10-28T11:20:21.918Z,13.81
2023-10-28T11:22:49.200Z,13.86
2023-10-28T11:25:16.373Z,13.90
2023-10-28T11:27:43.067Z,13.96
2023-10-28T11:30:12.177Z,14.02
2023-10-28T11:32:41.447Z,14.13
2023-10-28T11:35:13.050Z,14.23
2023-10-28T11:37:40.634Z,14.31
2023-10-28T11:40:09.251Z,14.38
2023-10-28T11:42:38.404Z,14.50
2023-10-28T11:45:11.216Z,14.64
2023-10-28T11:47:37.849Z,14.83
2023-10-28T11:50:08.775Z,15.00
2023-10-28T11:52:36.368Z,15.12
2023-10-28T11:55:06.692Z,15.14
2023-10-28T11:57:34.040Z,15.12
2023-10-28T12:00:01.143Z,15.07
2023-10-28T12:02:27.775Z,15.00
2023-10-28T12:04:54.794Z,14.93
2023-10-28T12:07:24.217Z,14.84
2023-10-28T12:09:50.940Z,14.76
2023-10-28T12:12:20.032Z,14.68
2023-10-28T12:14:46.566Z,14.62
2023-10-28T12:17:13.356Z,14.57
2023-10-28T12:19:41.595Z,14.55
2023-10-28T12:22:08.573Z,14.50
2023-10-28T12:24:35.951Z,14.42
2023-10-28T12:27:02.650Z,14.40
2023-10-28T12:29:29.706Z,14.41
2023-10-28T12:31:56.333Z,14.42
2023-10-28T12:34:23.117Z,14.38
2023-10-28T12:36:49.702Z,14.32
2023-10-28T12:39:19.210Z,14.28
2023-10-28T12:41:46.926Z,14.23
2023-10-28T12:44:13.529Z,14.15
2023-10-28T12:46:40.165Z,14.07
2023-10-28T12:49:07.337Z,14.02
2023-10-28T12:51:34.686Z,13.97
2023-10-28T12:54:02.794Z,13.92
2023-10-28T12:56:29.632Z,13.88
2023-10-28T12:58:58.630Z,13.80
2023-10-28T13:01:28.652Z,13.73
2023-10-28T13:03:57.282Z,13.69
2023-10-28T13:06:24.366Z,13.65
2023-10-28T13:08:51.253Z,13.63
2023-10-28T13:11:19.126Z,13.61
2023-10-28T13:13:46.956Z,13.59
2023-10-28T13:16:13.789Z,13.54
2023-10-28T13:18:40.635Z,13.46
2023-10-28T13:21:09.491Z,13.38
2023-10-28T13:23:38.328Z,13.26
2023-10-28T13:26:10.892Z,13.14
2023-10-28T13:28:37.431Z,13.02
2023-10-28T13:31:05.209Z,12.88
2023-10-28T13:33:33.077Z,12.75
2023-10-28T13:35:59.734Z,12.64
2023-10-28T13:38:29.355Z,12.53
2023-10-28T13:40:56.035Z,12.42
2023-10-28T13:43:22.554Z,12.33
2023-10-28T13:45:49.067Z,12.26
2023-10-28T13:48:17.530Z,12.21
2023-10-28T13:50:44.462Z,12.16
2023-10-28T13:53:11.551Z,12.14
2023-10-28T13:55:38.549Z,12.15
2023-10-28T13:58:05.084Z,12.16
2023-10-28T14:00:31.624Z,12.15
2023-10-28T14:03:00.864Z,12.11
2023-10-28T14:05:29.131Z,12.09
2023-10-28T14:07:55.800Z,12.11
2023-10-28T14:10:22.369Z,12.15
2023-10-28T14:12:48.897Z,12.18
2023-10-28T14:15:15.990Z,12.19
2023-10-28T14:17:42.658Z,12.16
2023-10-28T14:20:13.062Z,12.15
2023-10-28T14:22:39.930Z,12.14
2023-10-28T14:25:11.517Z,12.14
2023-10-28T14:27:38.854Z,12.17
2023-10-28T14:30:07.293Z,12.22
2023-10-28T14:32:36.788Z,12.30
2023-10-28T14:35:05.203Z,12.41
2023-10-28T14:37:32.620Z,12.50
2023-10-28T14:39:59.208Z,12.60
2023-10-28T14:42:26.260Z,12.68
2023-10-28T14:44:52.851Z,12.72
2023-10-28T14:47:19.425Z,12.68
2023-10-28T14:49:46.350Z,12.62
2023-10-28T14:52:13.622Z,12.57
2023-10-28T14:54:40.253Z,12.52
2023-10-28T14:57:09.197Z,12.48
2023-10-28T14:59:50.320Z,12.44
2023-10-28T15:02:18.388Z,12.39
2023-10-28T15:04:48.302Z,12.34
2023-10-28T15:07:15.452Z,12.29
2023-10-28T15:09:41.941Z,12.23
2023-10-28T15:12:08.750Z,12.18
2023-10-28T15:14:36.828Z,12.14
2023-10-28T15:17:04.295Z,12.11
2023-10-28T15:19:33.739Z,12.07
2023-10-28T15:22:02.952Z,12.05
2023-10-28T15:24:29.442Z,12.04
2023-10-28T15:26:55.990Z,12.02
2023-10-28T15:32:14.290Z,12.01
2023-10-28T15:34:46.763Z,12.00
2023-10-28T15:37:16.096Z,11.98
2023-10-28T15:39:42.659Z,11.96
2023-10-28T15:42:09.864Z,11.94
2023-10-28T15:44:38.351Z,11.92
2023-10-28T15:47:06.667Z,11.91
2023-10-28T15:49:33.295Z,11.88
2023-10-28T15:51:59.811Z,11.86
2023-10-28T15:54:26.270Z,11.84
2023-10-28T15:56:54.345Z,11.82
2023-10-28T15:59:21.269Z,11.82
2023-10-28T16:01:47.813Z,11.81
2023-10-28T16:04:16.744Z,11.81
2023-10-28T16:06:47.470Z,11.79
2023-10-28T16:09:16.151Z,11.78
2023-10-28T16:11:43.259Z,11.78
2023-10-28T16:14:10.196Z,11.78
2023-10-28T16:16:36.979Z,11.77
2023-10-28T16:19:03.801Z,11.77
2023-10-28T16:21:30.591Z,11.77
2023-10-28T16:23:57.706Z,11.77
2023-10-28T16:26:26.685Z,11.78
2023-10-28T16:28:53.207Z,11.78
2023-10-28T16:31:19.686Z,11.78
2023-10-28T16:33:46.317Z,11.78
2023-10-28T16:36:12.955Z,11.79
2023-10-28T16:38:39.558Z,11.78
2023-10-28T16:41:07.019Z,11.79
2023-10-28T16:43:34.217Z,11.78
2023-10-28T16:46:02.250Z,11.76
2023-10-28T16:48:30.336Z,11.77
2023-10-28T16:51:01.332Z,11.77
2023-10-28T16:53:28.348Z,11.76
2023-10-28T16:56:04.961Z,11.76
2023-10-28T16:58:31.915Z,11.76
2023-10-28T17:00:58.613Z,11.75
2023-10-28T17:03:25.677Z,11.74
2023-10-28T17:05:52.999Z,11.74
2023-10-28T17:08:19.744Z,11.74
2023-10-28T17:10:47.190Z,11.74
2023-10-28T17:13:14.298Z,11.74
2023-10-28T17:15:43.241Z,11.74
2023-10-28T17:18:10.137Z,11.74
2023-10-28T17:20:36.835Z,11.73
2023-10-28T17:23:06.126Z,11.74
2023-10-28T17:25:33.894Z,11.74
2023-10-28T17:28:00.449Z,11.75
2023-10-28T17:30:26.987Z,11.74
2023-10-28T17:32:53.569Z,11.76
2023-10-28T17:35:20.297Z,11.76
2023-10-28T17:37:49.989Z,11.76
2023-10-28T17:40:17.877Z,11.77
2023-10-28T17:42:45.389Z,11.77
2023-10-28T17:45:11.890Z,11.76
2023-10-28T17:47:38.440Z,11.76
2023-10-28T17:50:08.312Z,11.75
2023-10-28T17:52:35.039Z,11.75
2023-10-28T17:55:03.216Z,11.75
2023-10-28T17:57:30.071Z,11.75
2023-10-28T17:59:56.640Z,11.75
2023-10-28T18:02:23.295Z,11.75
2023-10-28T18:04:49.826Z,11.76
2023-10-28T18:07:16.369Z,11.76
2023-10-28T18:09:42.845Z,11.75
2023-10-28T18:12:10.728Z,11.75
2023-10-28T18:14:38.110Z,11.74
2023-10-28T18:17:07.325Z,11.74
2023-10-28T18:19:36.135Z,11.74
2023-10-28T18:22:03.481Z,11.74
2023-10-28T18:24:32.563Z,11.74
2023-10-28T18:27:00.068Z,11.73
2023-10-28T18:29:27.568Z,11.73
2023-10-28T18:31:54.416Z,11.72
2023-10-28T18:34:21.773Z,11.70
2023-10-28T18:36:51.339Z,11.70
2023-10-28T18:39:18.064Z,11.69
2023-10-28T18:41:44.607Z,11.69
2023-10-28T18:44:11.419Z,11.69
2023-10-28T18:46:38.058Z,11.69
2023-10-28T18:49:06.869Z,11.68
2023-10-28T18:51:33.368Z,11.67
2023-10-28T18:54:00.479Z,11.68
2023-10-28T18:56:27.021Z,11.68
2023-10-28T18:58:57.411Z,11.69
2023-10-28T19:01:24.027Z,11.69
2023-10-28T19:03:52.445Z,11.69
2023-10-28T19:06:21.825Z,11.69
2023-10-28T19:08:48.900Z,11.70
2023-10-28T19:11:18.230Z,11.70
2023-10-28T19:13:44.774Z,11.70
2023-10-28T19:16:13.690Z,11.71
2023-10-28T19:18:40.728Z,11.70
2023-10-28T19:21:09.737Z,11.70
2023-10-28T19:23:37.126Z,11.70
2023-10-28T19:26:04.414Z,11.70
2023-10-28T19:28:32.453Z,11.70
2023-10-28T19:30:58.950Z,11.71
2023-10-28T19:33:27.009Z,11.72
2023-10-28T19:35:55.364Z,11.72
2023-10-28T19:38:22.217Z,11.71
2023-10-28T19:40:49.692Z,11.70
2023-10-28T19:43:16.437Z,11.69
2023-10-28T19:45:43.475Z,11.68
2023-10-28T19:48:11.298Z,11.67
2023-10-28T19:50:37.943Z,11.66
2023-10-28T19:53:04.451Z,11.65
2023-10-28T19:55:31.279Z,11.64
2023-10-28T19:57:58.598Z,11.63
2023-10-28T20:00:25.115Z,11.61
2023-10-28T20:02:52.210Z,11.60
2023-10-28T20:05:20.992Z,11.59
2023-10-28T20:07:48.221Z,11.59
2023-10-28T20:10:15.893Z,11.59
2023-10-28T20:12:45.291Z,11.59
2023-10-28T20:15:11.839Z,11.60
2023-10-28T20:17:42.107Z,11.60
2023-10-28T20:20:10.289Z,11.60
2023-10-28T20:22:37.700Z,11.60
2023-10-28T20:25:05.827Z,11.59
2023-10-28T20:27:33.543Z,11.59
2023-10-28T20:30:02.798Z,11.59
2023-10-28T20:32:31.838Z,11.59
2023-10-28T20:34:59.503Z,11.59
2023-10-28T20:37:26.306Z,11.59
2023-10-28T20:39:54.384Z,11.60
2023-10-28T20:42:20.988Z,11.60
2023-10-28T20:44:47.713Z,11.62
2023-10-28T20:47:14.485Z,11.63
2023-10-28T20:49:42.448Z,11.63
2023-10-28T20:52:09.107Z,11.62
2023-10-28T20:54:38.280Z,11.60
2023-10-28T20:57:07.409Z,11.59
2023-10-28T20:59:34.144Z,11.59
2023-10-28T21:02:03.442Z,11.59
2023-10-28T21:04:30.852Z,11.58
2023-10-28T21:06:57.687Z,11.59
2023-10-28T21:09:24.371Z,11.60
2023-10-28T21:11:51.177Z,11.61
2023-10-28T21:14:17.929Z,11.62
2023-10-28T21:16:44.750Z,11.62
2023-10-28T21:19:12.562Z,11.62
2023-10-28T21:21:39.235Z,11.64
2023-10-28T21:24:06.767Z,11.65
2023-10-28T21:26:33.344Z,11.66
2023-10-28T21:29:00.042Z,11.66
2023-10-28T21:31:26.663Z,11.67
2023-10-28T21:33:53.306Z,11.66
2023-10-28T21:36:20.387Z,11.66
2023-10-28T21:38:49.118Z,11.66
2023-10-28T21:41:15.862Z,11.66
2023-10-28T21:43:42.876Z,11.66
2023-10-28T21:46:10.272Z,11.66
2023-10-28T21:48:39.872Z,11.67
2023-10-28T21:51:09.353Z,11.66
2023-10-28T21:53:37.055Z,11.65
2023-10-28T21:56:06.033Z,11.66
2023-10-28T21:58:35.111Z,11.66
2023-10-28T22:01:02.335Z,11.67
2023-10-28T22:03:29.507Z,11.67
2023-10-28T22:05:56.884Z,11.68
2023-10-28T22:08:24.173Z,11.68
2023-10-28T22:10:50.938Z,11.69
2023-10-28T22:13:17.564Z,11.69
2023-10-28T22:15:45.034Z,11.70
2023-10-28T22:18:15.703Z,11.70
2023-10-28T22:20:44.472Z,11.70
2023-10-28T22:23:11.862Z,11.69
2023-10-28T22:25:40.009Z,11.69
2023-10-28T22:28:15.529Z,11.68
2023-10-28T22:30:46.089Z,11.68
2023-10-28T22:33:13.890Z,11.68
2023-10-28T22:35:41.391Z,11.68
2023-10-28T22:38:08.596Z,11.68
2023-10-28T22:40:35.114Z,11.69
2023-10-28T22:43:03.126Z,11.69
2023-10-28T22:45:30.150Z,11.70
2023-10-28T22:47:56.946Z,11.70
2023-10-28T22:50:24.518Z,11.71
2023-10-28T22:52:53.683Z,11.72
2023-10-28T22:55:22.555Z,11.73
2023-10-28T22:57:49.175Z,11.73
2023-10-28T23:00:17.008Z,11.73
2023-10-28T23:02:43.676Z,11.72
2023-10-28T23:05:10.712Z,11.72
2023-10-28T23:07:37.512Z,11.70
2023-10-28T23:10:07.062Z,11.70
2023-10-28T23:12:35.757Z,11.69
2023-10-28T23:15:04.006Z,11.69
2023-10-28T23:17:30.566Z,11.69
2023-10-28T23:19:57.323Z,11.69
2023-10-28T23:22:23.798Z,11.70
2023-10-28T23:24:51.333Z,11.70
2023-10-28T23:27:17.831Z,11.69
2023-10-28T23:29:46.149Z,11.69
2023-10-28T23:32:13.435Z,11.68
2023-10-28T23:34:42.420Z,11.68
2023-10-28T23:37:09.333Z,11.68
2023-10-28T23:39:35.991Z,11.68
2023-10-28T23:42:03.777Z,11.68
2023-10-28T23:44:30.757Z,11.68
2023-10-28T23:46:57.605Z,11.68
2023-10-28T23:49:24.170Z,11.68
2023-10-28T23:51:50.674Z,11.68
2023-10-28T23:54:17.381Z,11.68
2023-10-28T23:56:46.526Z,11.68
2023-10-28T23:59:13.045Z,11.67
